Time;durP1;ratioP1;P1;durP2;ratioP2;P2;SDS_P1;SDS_P2;PMS_P1;PMS_P2;Temp;Humidity;BMP_temperature;BMP_pressure;BME280_temperature;BME280_humidity;BME280_pressure;Samples;Min_cycle;Max_cycle;Signal;HPM_P1;HPM_P2
2022/08/25 00:00:17;;;;;;;;;14.50;13.25;;;;;26.70;43.76;101027.72;5076099;28;45394;-63
2022/08/25 00:02:42;;;;;;;;;14.25;13.00;;;;;26.64;43.93;101022.81;5072943;28;45232;-64
2022/08/25 00:05:08;;;;;;;;;14.00;12.75;;;;;26.63;43.94;101023.84;5079228;27;45489;-63
2022/08/25 00:07:35;;;;;;;;;14.75;14.00;;;;;26.58;43.88;101026.13;5078325;28;45161;-64
2022/08/25 00:10:00;;;;;;;;;15.00;12.25;;;;;26.57;43.62;101025.25;5068257;28;45495;-64
2022/08/25 00:12:25;;;;;;;;;12.25;12.25;;;;;26.55;44.19;101023.69;5072105;28;45307;-63
2022/08/25 00:14:51;;;;;;;;;12.50;11.50;;;;;26.51;44.62;101030.47;5078432;27;47081;-63
2022/08/25 00:17:17;;;;;;;;;15.00;13.75;;;;;26.48;44.33;101026.16;5068704;27;45373;-64
2022/08/25 00:19:43;;;;;;;;;14.25;13.00;;;;;26.45;44.38;101020.97;5076084;27;46088;-63
2022/08/25 00:22:08;;;;;;;;;15.75;14.25;;;;;26.43;44.52;101021.13;5074842;27;45289;-63
2022/08/25 00:24:33;;;;;;;;;17.00;17.00;;;;;26.42;44.50;101018.53;5079872;28;46474;-63
2022/08/25 00:27:00;;;;;;;;;15.75;14.75;;;;;26.41;44.88;101014.94;5080011;28;45311;-63
2022/08/25 00:29:26;;;;;;;;;17.50;16.50;;;;;26.37;44.67;101016.22;5066539;28;45458;-64
2022/08/25 00:31:53;;;;;;;;;21.25;19.50;;;;;26.36;44.81;101016.38;5075960;27;45473;-63
2022/08/25 00:34:24;;;;;;;;;16.75;16.75;;;;;26.31;45.18;101010.47;5079906;28;46863;-63
2022/08/25 00:36:53;;;;;;;;;15.75;15.00;;;;;26.30;45.44;101006.03;5079981;28;45395;-63
2022/08/25 00:39:20;;;;;;;;;19.00;17.00;;;;;26.23;45.34;100989.31;5077895;27;45228;-64
2022/08/25 00:41:48;;;;;;;;;18.50;18.50;;;;;26.27;45.39;101011.78;5080115;28;45177;-64
2022/08/25 00:44:16;;;;;;;;;15.25;14.75;;;;;26.23;45.45;101012.06;5079883;28;46342;-63
2022/08/25 00:46:47;;;;;;;;;17.00;17.00;;;;;26.20;45.76;101008.75;5078182;27;45548;-64
2022/08/25 00:49:25;;;;;;;;;15.25;15.00;;;;;26.17;45.73;101007.16;5071972;28;45253;-64
2022/08/25 00:51:59;;;;;;;;;19.75;19.00;;;;;26.13;45.56;101005.75;5071455;27;45462;-63
2022/08/25 00:54:30;;;;;;;;;17.50;17.50;;;;;26.14;45.55;101001.13;5064707;27;45411;-63
2022/08/25 00:56:58;;;;;;;;;17.25;15.25;;;;;26.09;46.24;101001.56;5078517;27;45418;-64
2022/08/25 00:59:25;;;;;;;;;15.50;15.00;;;;;26.04;45.95;100995.66;5076364;27;45536;-63
2022/08/25 01:01:53;;;;;;;;;16.50;16.50;;;;;26.02;45.88;100997.69;5071169;27;45311;-63
2022/08/25 01:04:19;;;;;;;;;17.50;15.75;;;;;26.00;46.50;100997.81;5072819;27;47209;-63
2022/08/25 01:06:47;;;;;;;;;16.50;16.50;;;;;25.98;46.50;101007.19;5062789;27;45172;-64
2022/08/25 01:09:13;;;;;;;;;16.50;15.50;;;;;25.96;46.20;101003.72;5064220;27;45468;-64
2022/08/25 01:11:40;;;;;;;;;17.00;16.50;;;;;25.93;46.51;101002.13;5077790;28;45561;-64
2022/08/25 01:14:07;;;;;;;;;17.75;16.00;;;;;25.93;46.77;101002.13;5073708;28;46184;-63
2022/08/25 01:16:36;;;;;;;;;15.50;14.25;;;;;25.89;47.00;100990.59;5079526;28;45473;-63
2022/08/25 01:19:03;;;;;;;;;19.50;19.25;;;;;25.89;46.90;101003.38;5069604;27;45454;-63
2022/08/25 01:21:30;;;;;;;;;16.25;14.25;;;;;25.87;46.93;101005.41;5072679;28;45331;-63
2022/08/25 01:23:58;;;;;;;;;15.25;14.50;;;;;25.83;47.44;100999.38;5079369;28;46296;-63
2022/08/25 01:26:28;;;;;;;;;15.25;15.00;;;;;25.83;47.42;101013.03;5079340;28;45276;-63
2022/08/25 01:31:40;;;;;;;;;16.25;15.00;;;;;25.79;47.78;100995.16;5069066;28;45457;-64
2022/08/25 01:34:13;;;;;;;;;11.00;11.00;;;;;25.77;47.95;100997.19;5078692;28;46307;-63
2022/08/25 01:36:40;;;;;;;;;16.00;15.00;;;;;25.76;47.49;100995.50;5068567;28;45536;-63
2022/08/25 01:39:06;;;;;;;;;13.25;13.00;;;;;25.75;48.02;100992.91;5051540;27;45461;-63
2022/08/25 01:41:57;;;;;;;;;12.25;12.25;;;;;25.69;47.65;100992.47;5081316;28;45322;-63
2022/08/25 01:44:24;;;;;;;;;13.00;13.00;;;;;25.68;47.86;101001.66;5082583;28;46194;-63
2022/08/25 01:46:50;;;;;;;;;14.75;14.50;;;;;25.65;47.87;101004.66;5082808;28;45337;-64
2022/08/25 01:49:16;;;;;;;;;15.00;15.00;;;;;25.61;48.64;100992.31;5081276;27;45371;-63
2022/08/25 01:51:50;;;;;;;;;15.00;14.75;;;;;25.61;48.39;100983.22;5080384;27;52005;-63
2022/08/25 01:54:15;;;;;;;;;13.50;13.50;;;;;25.61;49.11;100989.56;5081485;28;45925;-63
2022/08/25 01:56:41;;;;;;;;;11.50;11.50;;;;;25.59;49.07;100986.09;5082651;28;45465;-63
2022/08/25 01:59:06;;;;;;;;;14.00;13.25;;;;;25.59;48.51;100985.22;5081609;28;45357;-63
2022/08/25 02:01:32;;;;;;;;;14.25;13.25;;;;;25.57;48.43;100996.31;5081306;27;45184;-63
2022/08/25 02:03:57;;;;;;;;;12.00;11.50;;;;;25.55;48.36;100986.53;5074406;28;45952;-63
2022/08/25 02:06:27;;;;;;;;;12.00;12.00;;;;;25.54;48.54;100977.44;5082213;28;45180;-63
2022/08/25 02:08:59;;;;;;;;;16.75;16.00;;;;;25.51;49.31;100962.22;5080671;28;45280;-63
2022/08/25 02:11:25;;;;;;;;;13.00;11.25;;;;;25.46;48.88;100959.03;5081607;27;45464;-63
2022/08/25 02:13:51;;;;;;;;;13.00;13.00;;;;;25.46;49.25;100958.16;5072458;28;45390;-63
2022/08/25 02:16:24;;;;;;;;;19.25;16.00;;;;;25.47;49.04;100959.91;5082054;28;45544;-63
2022/08/25 02:18:49;;;;;;;;;12.50;12.50;;;;;25.45;49.54;100959.19;5080860;27;45430;-64
2022/08/25 02:21:15;;;;;;;;;13.50;12.75;;;;;25.41;49.33;100955.88;5078355;27;45475;-63
2022/08/25 02:23:41;;;;;;;;;15.00;13.00;;;;;25.41;49.75;100964.06;5078382;27;46243;-63
2022/08/25 02:26:07;;;;;;;;;16.50;14.50;;;;;25.38;49.50;100967.09;5081944;28;45450;-63
2022/08/25 02:28:33;;;;;;;;;15.00;15.00;;;;;25.35;50.03;100961.91;5063312;28;45348;-63
2022/08/25 02:30:58;;;;;;;;;13.25;13.25;;;;;25.33;49.28;100952.97;5071519;27;45411;-63
2022/08/25 02:33:24;;;;;;;;;14.50;14.00;;;;;25.32;49.71;100948.50;5081445;27;45932;-64
2022/08/25 02:35:50;;;;;;;;;12.25;12.25;;;;;25.29;49.51;100943.31;5079989;27;45399;-63
2022/08/25 02:38:16;;;;;;;;;14.25;13.00;;;;;25.22;49.97;100937.53;5079335;27;45303;-63
2022/08/25 02:40:41;;;;;;;;;13.25;12.75;;;;;25.26;49.76;100949.03;5080938;28;45287;-64
2022/08/25 02:43:06;;;;;;;;;14.50;14.25;;;;;25.24;50.04;100938.28;5081641;28;47317;-63
2022/08/25 02:45:32;;;;;;;;;18.00;18.00;;;;;25.22;50.04;100947.59;5081285;27;45356;-63
2022/08/25 02:47:57;;;;;;;;;18.00;16.75;;;;;25.18;49.52;100936.09;5080941;28;45236;-63
2022/08/25 02:50:23;;;;;;;;;16.25;13.50;;;;;25.17;49.63;100939.81;5081934;28;45309;-63
2022/08/25 02:52:50;;;;;;;;;14.00;14.00;;;;;25.13;49.75;100930.19;5076718;28;46063;-63
2022/08/25 02:55:18;;;;;;;;;16.00;15.00;;;;;25.12;50.06;100922.97;5060035;28;45483;-63
2022/08/25 02:57:44;;;;;;;;;15.50;15.50;;;;;25.12;49.64;100926.56;5081075;27;45482;-63
2022/08/25 03:00:13;;;;;;;;;17.25;17.25;;;;;25.07;49.94;100915.19;5080054;27;45426;-63
2022/08/25 03:02:40;;;;;;;;;17.00;14.00;;;;;25.05;49.97;100919.94;5080393;27;45946;-63
2022/08/25 03:05:06;;;;;;;;;15.25;15.00;;;;;24.99;50.19;100906.84;5081178;28;45531;-63
2022/08/25 03:07:32;;;;;;;;;18.50;17.50;;;;;25.05;49.42;100928.13;5080637;27;45459;-63
2022/08/25 03:09:57;;;;;;;;;15.00;14.00;;;;;25.03;50.20;100929.31;5080505;28;45326;-63
2022/08/25 03:12:23;;;;;;;;;6.50;6.00;;;;;25.00;50.14;100930.44;5073293;28;45360;-63
2022/08/25 03:14:48;;;;;;;;;14.50;14.25;;;;;24.99;49.52;100925.97;5078739;28;45291;-64
2022/08/25 03:17:13;;;;;;;;;13.25;12.25;;;;;24.97;49.58;100930.69;5080917;27;45468;-63
2022/08/25 03:19:39;;;;;;;;;16.00;16.00;;;;;24.95;49.67;100927.25;5080079;28;45426;-63
2022/08/25 03:22:04;;;;;;;;;13.25;12.25;;;;;24.92;49.62;100916.59;5078436;27;45496;-63
2022/08/25 03:24:29;;;;;;;;;15.50;15.50;;;;;24.91;49.42;100913.03;5076906;28;45490;-63
2022/08/25 03:26:55;;;;;;;;;13.25;11.00;;;;;24.89;49.85;100911.41;5080706;27;45362;-63
2022/08/25 03:29:29;;;;;;;;;14.00;13.00;;;;;24.86;49.56;100906.22;5080299;28;45357;-63
2022/08/25 03:31:56;;;;;;;;;17.75;13.50;;;;;24.84;49.42;100903.66;5067890;27;45410;-63
2022/08/25 03:34:29;;;;;;;;;15.00;13.00;;;;;24.80;49.43;100904.06;5074059;28;45293;-63
2022/08/25 03:36:55;;;;;;;;;11.50;11.00;;;;;24.78;50.19;100902.34;5076489;27;45465;-63
2022/08/25 03:39:23;;;;;;;;;12.75;11.50;;;;;24.75;49.47;100882.63;5067199;28;45466;-64
2022/08/25 03:41:50;;;;;;;;;13.75;12.25;;;;;24.71;49.48;100871.13;5081038;28;46273;-64
2022/08/25 03:44:17;;;;;;;;;14.75;14.50;;;;;24.72;50.00;100880.19;5080896;28;45252;-64
2022/08/25 03:46:50;;;;;;;;;13.50;11.75;;;;;24.68;49.42;100881.47;5080595;27;46048;-64
2022/08/25 03:49:19;;;;;;;;;13.75;11.50;;;;;24.70;48.51;100884.94;5079061;28;45453;-64
2022/08/25 03:51:48;;;;;;;;;12.25;12.25;;;;;24.69;47.96;100877.72;5067712;28;46343;-64
2022/08/25 03:54:15;;;;;;;;;9.75;9.25;;;;;24.70;49.09;100877.59;5080504;28;45330;-63
2022/08/25 03:56:42;;;;;;;;;13.25;12.00;;;;;24.69;48.51;100883.19;5080489;27;45210;-64
2022/08/25 03:59:08;;;;;;;;;15.75;11.00;;;;;24.69;48.80;100877.72;5079728;28;45474;-63
2022/08/25 04:01:37;;;;;;;;;9.25;9.00;;;;;24.66;49.16;100869.81;5079713;28;46212;-63
2022/08/25 04:04:03;;;;;;;;;12.00;10.50;;;;;24.61;48.89;100878.44;5070811;28;45446;-63
2022/08/25 04:06:29;;;;;;;;;14.00;11.50;;;;;24.63;48.55;100894.69;5069034;27;45817;-64
2022/08/25 04:08:56;;;;;;;;;12.00;11.25;;;;;24.60;49.17;100893.06;5078173;27;46870;-63
2022/08/25 04:11:22;;;;;;;;;14.25;11.00;;;;;24.55;49.18;100892.63;5079619;28;46225;-63
2022/08/25 04:13:48;;;;;;;;;16.50;15.00;;;;;24.55;48.47;100892.63;5079973;28;45295;-63
2022/08/25 04:16:17;;;;;;;;;13.00;11.75;;;;;24.49;48.75;100888.56;5075889;27;45506;-64
2022/08/25 04:18:44;;;;;;;;;13.25;11.00;;;;;24.50;49.14;100894.88;5060366;28;46097;-64
2022/08/25 04:21:10;;;;;;;;;9.50;9.25;;;;;24.48;49.59;100896.88;5080135;28;45306;-63
2022/08/25 04:23:39;;;;;;;;;15.25;13.75;;;;;24.49;49.41;100898.59;5079619;27;45464;-64
2022/08/25 04:26:32;;;;;;;;;12.75;12.75;;;;;24.49;49.93;100901.31;5080284;28;45319;-63
2022/08/25 04:28:59;;;;;;;;;14.00;11.25;;;;;24.48;49.54;100905.06;5079224;28;45386;-63
2022/08/25 04:31:26;;;;;;;;;12.00;12.00;;;;;24.46;49.91;100907.03;5068504;28;46097;-63
2022/08/25 04:33:52;;;;;;;;;12.25;10.50;;;;;24.41;50.03;100904.75;5075084;28;45465;-63
2022/08/25 04:36:18;;;;;;;;;14.00;12.00;;;;;24.38;49.78;100903.13;5069865;28;45438;-64
2022/08/25 04:38:45;;;;;;;;;14.50;12.25;;;;;24.37;50.12;100901.41;5072911;28;45329;-63
2022/08/25 04:41:12;;;;;;;;;16.50;16.00;;;;;24.36;50.23;100910.59;5080038;28;46337;-63
2022/08/25 04:43:39;;;;;;;;;16.00;14.00;;;;;24.32;50.18;100908.25;5080051;28;45748;-63
2022/08/25 04:46:15;;;;;;;;;12.25;12.00;;;;;24.27;50.31;100902.34;5080362;28;45336;-64
2022/08/25 04:48:40;;;;;;;;;13.25;13.00;;;;;24.29;50.93;100914.88;5073844;28;45374;-63
2022/08/25 04:51:14;;;;;;;;;13.25;12.25;;;;;24.31;50.89;100931.97;5079679;28;47001;-64
2022/08/25 04:53:41;;;;;;;;;16.00;12.25;;;;;24.28;50.42;100932.22;5079738;28;45466;-63
2022/08/25 04:56:09;;;;;;;;;14.00;14.00;;;;;24.27;50.96;100930.47;5079834;28;45604;-63
2022/08/25 04:58:36;;;;;;;;;14.25;14.25;;;;;24.29;51.47;100933.97;5078764;28;45279;-64
2022/08/25 05:01:09;;;;;;;;;15.25;13.50;;;;;24.26;51.10;100925.16;5079655;28;45327;-63
2022/08/25 05:03:34;;;;;;;;;16.00;13.00;;;;;24.27;51.63;100932.34;5075329;28;45507;-63
2022/08/25 05:06:00;;;;;;;;;16.50;16.50;;;;;24.24;51.77;100933.50;5077404;28;45450;-63
2022/08/25 05:08:26;;;;;;;;;14.75;14.00;;;;;24.25;51.46;100939.81;5078520;28;45575;-63
2022/08/25 05:10:53;;;;;;;;;14.75;14.75;;;;;24.22;51.66;100939.09;5079774;28;47608;-63
2022/08/25 05:13:19;;;;;;;;;12.50;12.00;;;;;24.24;52.05;100949.88;5069807;28;45563;-63
2022/08/25 05:15:51;;;;;;;;;13.75;13.75;;;;;24.21;52.19;100956.44;5083313;28;45362;-63
2022/08/25 05:18:18;;;;;;;;;15.75;14.00;;;;;24.20;52.42;100956.56;5081211;28;46075;-63
2022/08/25 05:20:44;;;;;;;;;15.00;14.00;;;;;24.18;52.49;100959.44;5083020;28;46331;-63
2022/08/25 05:23:10;;;;;;;;;16.75;13.00;;;;;24.11;52.18;100957.38;5082802;28;45394;-63
2022/08/25 05:25:35;;;;;;;;;16.50;14.75;;;;;24.11;52.66;100954.66;5083466;28;45344;-63
2022/08/25 05:28:01;;;;;;;;;14.75;13.00;;;;;24.13;52.71;100964.41;5082049;28;45483;-63
2022/08/25 05:30:27;;;;;;;;;16.00;14.50;;;;;24.12;52.68;100967.28;5063687;28;46397;-63
2022/08/25 05:32:52;;;;;;;;;18.50;15.00;;;;;24.09;52.64;100971.16;5078027;28;46141;-63
2022/08/25 05:35:19;;;;;;;;;12.75;12.75;;;;;24.09;52.54;100971.16;5082637;28;45402;-63
2022/08/25 05:37:44;;;;;;;;;16.25;15.50;;;;;24.09;52.90;100965.69;5081619;28;45404;-63
2022/08/25 05:40:09;;;;;;;;;14.50;14.50;;;;;24.08;52.63;100963.94;5079102;28;46267;-63
2022/08/25 05:42:35;;;;;;;;;17.25;15.50;;;;;24.08;52.99;100971.28;5080856;28;45162;-63
2022/08/25 05:45:01;;;;;;;;;11.75;11.75;;;;;24.04;52.84;100963.34;5082213;28;45389;-63
2022/08/25 05:47:26;;;;;;;;;19.50;18.25;;;;;24.08;53.07;100957.66;5082177;28;45627;-63
2022/08/25 05:49:52;;;;;;;;;16.00;15.50;;;;;24.04;52.96;100960.63;5081545;28;45334;-63
2022/08/25 05:52:17;;;;;;;;;16.50;15.50;;;;;24.05;53.21;100959.59;5082376;28;45323;-63
2022/08/25 05:54:43;;;;;;;;;17.50;17.00;;;;;24.03;53.31;100961.63;5082706;28;45399;-63
2022/08/25 05:57:08;;;;;;;;;16.75;15.50;;;;;24.05;53.72;100958.75;5075213;28;46429;-63
2022/08/25 05:59:34;;;;;;;;;18.25;17.00;;;;;24.01;53.37;100955.44;5079468;28;45344;-63
2022/08/25 06:04:44;;;;;;;;;15.25;14.75;;;;;24.03;53.36;100963.47;5081173;28;45490;-63
2022/08/25 06:07:09;;;;;;;;;17.75;17.75;;;;;24.00;53.94;100959.16;5081100;28;45800;-63
2022/08/25 06:09:38;;;;;;;;;19.25;16.75;;;;;24.01;53.68;100960.03;5079711;28;46082;-63
2022/08/25 06:12:03;;;;;;;;;15.00;14.00;;;;;23.96;53.09;100951.38;5076614;28;45251;-65
2022/08/25 06:14:28;;;;;;;;;16.25;15.00;;;;;24.00;53.27;100959.16;5080172;28;45312;-65
2022/08/25 06:16:54;;;;;;;;;14.75;14.75;;;;;24.01;53.34;100962.75;5078270;28;45420;-66
2022/08/25 06:19:20;;;;;;;;;16.25;15.00;;;;;24.01;53.18;100960.03;5062783;28;46184;-66
2022/08/25 06:21:45;;;;;;;;;14.00;14.00;;;;;23.99;52.98;100954.72;5081210;28;45347;-65
2022/08/25 06:24:11;;;;;;;;;18.25;16.75;;;;;23.97;53.14;100955.81;5080552;28;45482;-65
2022/08/25 06:26:36;;;;;;;;;12.25;12.25;;;;;24.02;52.65;100953.56;5081376;28;45163;-66
2022/08/25 06:29:02;;;;;;;;;14.25;13.00;;;;;24.01;51.66;100949.97;5080926;28;45288;-65
2022/08/25 06:31:28;;;;;;;;;12.50;12.50;;;;;24.02;51.79;100949.00;5076321;28;45366;-65
2022/08/25 06:33:53;;;;;;;;;13.50;12.75;;;;;24.01;50.83;100946.41;5079101;28;45470;-65
2022/08/25 06:36:19;;;;;;;;;11.50;11.00;;;;;24.05;50.52;100958.75;5080093;28;45569;-65
2022/08/25 06:38:45;;;;;;;;;14.00;11.25;;;;;24.04;49.33;100959.78;5079997;28;45348;-65
2022/08/25 06:41:11;;;;;;;;;10.50;10.50;;;;;24.05;49.82;100961.47;5080167;27;46150;-65
2022/08/25 06:43:38;;;;;;;;;12.25;12.25;;;;;24.05;49.94;100956.88;5080364;27;45503;-66
2022/08/25 06:46:11;;;;;;;;;12.25;11.75;;;;;24.10;48.88;100963.81;5069482;28;45308;-66
2022/08/25 06:48:37;;;;;;;;;13.00;12.25;;;;;24.09;49.01;100954.78;5079566;28;45518;-66
2022/08/25 06:51:07;;;;;;;;;12.25;11.75;;;;;24.14;49.13;100965.28;5077143;27;45652;-65
2022/08/25 06:53:33;;;;;;;;;11.00;11.00;;;;;24.16;48.29;100963.31;5075674;28;45311;-66
2022/08/25 06:55:59;;;;;;;;;11.00;10.00;;;;;24.15;48.71;100956.97;5080620;28;45453;-65
2022/08/25 06:58:24;;;;;;;;;13.00;12.00;;;;;24.13;48.02;100958.97;5079807;27;46033;-65
2022/08/25 07:00:49;;;;;;;;;11.25;10.75;;;;;24.17;47.56;100960.44;5075243;27;45387;-66
2022/08/25 07:03:15;;;;;;;;;11.75;10.25;;;;;24.23;47.68;100968.06;5077349;27;45359;-66
2022/08/25 07:05:40;;;;;;;;;12.50;10.00;;;;;24.26;47.44;100974.25;5077943;27;45747;-65
2022/08/25 07:08:06;;;;;;;;;13.50;12.00;;;;;24.24;47.28;100963.50;5070304;27;46162;-65
2022/08/25 07:10:31;;;;;;;;;11.00;10.25;;;;;24.28;46.68;100958.66;5077600;27;45373;-65
2022/08/25 07:12:56;;;;;;;;;8.75;8.75;;;;;24.33;47.35;100964.56;5077678;28;45282;-65
2022/08/25 07:15:21;;;;;;;;;10.00;10.00;;;;;24.35;46.77;100962.56;5038572;27;1153177;-67
2022/08/25 07:17:48;;;;;;;;;12.50;12.50;;;;;24.38;46.26;100970.47;5075588;27;45456;-65
2022/08/25 07:20:13;;;;;;;;;13.25;12.75;;;;;24.39;46.07;100964.88;5071010;28;45441;-65
2022/08/25 07:22:39;;;;;;;;;12.00;11.00;;;;;24.44;46.36;100971.78;5058931;27;45985;-65
2022/08/25 07:25:05;;;;;;;;;11.50;10.75;;;;;24.46;46.51;100972.50;5075044;28;45760;-65
2022/08/25 07:27:31;;;;;;;;;11.50;11.50;;;;;24.49;45.96;100985.91;5080008;27;46632;-65
2022/08/25 07:29:57;;;;;;;;;12.50;10.75;;;;;24.48;46.76;100973.28;5079475;28;45305;-65
2022/08/25 07:32:22;;;;;;;;;11.25;10.75;;;;;24.52;46.37;100982.91;5078250;27;45512;-65
2022/08/25 07:37:31;;;;;;;;;8.50;8.00;;;;;24.55;45.59;100980.78;5069303;28;45400;-65
2022/08/25 07:39:58;;;;;;;;;10.00;10.00;;;;;24.56;45.45;100974.34;5076971;28;45365;-66
2022/08/25 07:42:26;;;;;;;;;11.00;11.00;;;;;24.63;45.49;100976.56;5074902;28;45395;-65
2022/08/25 07:44:51;;;;;;;;;9.25;9.00;;;;;24.64;44.89;100972.81;5077677;28;45594;-65
2022/08/25 07:47:17;;;;;;;;;11.75;11.00;;;;;24.66;45.07;100971.69;5054336;28;48310;-65
2022/08/25 07:49:42;;;;;;;;;12.25;10.00;;;;;24.71;44.85;100966.66;5078151;28;45476;-65
2022/08/25 07:52:08;;;;;;;;;10.00;10.00;;;;;24.78;45.22;100969.72;5079068;28;45394;-65
2022/08/25 07:54:35;;;;;;;;;12.00;12.00;;;;;24.82;45.58;100970.31;5079669;28;45458;-65
2022/08/25 07:57:07;;;;;;;;;13.00;11.00;;;;;24.85;44.79;100970.03;5079551;28;46222;-65
2022/08/25 07:59:33;;;;;;;;;11.00;11.00;;;;;24.90;44.79;100970.50;5073093;28;45465;-65
2022/08/25 08:01:59;;;;;;;;;10.50;10.50;;;;;24.90;44.89;100965.03;5077181;28;45371;-65
2022/08/25 08:04:24;;;;;;;;;10.25;9.50;;;;;24.99;45.05;100966.06;5072410;27;49608;-65
2022/08/25 08:06:49;;;;;;;;;11.00;10.50;;;;;25.04;45.14;100964.66;5079374;28;47535;-65
2022/08/25 08:09:15;;;;;;;;;9.75;9.75;;;;;25.09;46.17;100956.91;5079766;28;45351;-65
2022/08/25 08:11:43;;;;;;;;;12.75;12.25;;;;;25.14;44.18;100959.22;5077589;28;45440;-65
2022/08/25 08:14:08;;;;;;;;;12.00;11.50;;;;;25.17;44.01;100960.81;5061097;28;45461;-65
2022/08/25 08:16:34;;;;;;;;;11.50;10.00;;;;;25.15;43.67;100950.03;5079537;28;45549;-65
2022/08/25 08:18:59;;;;;;;;;13.25;12.75;;;;;25.22;43.10;100955.78;5079572;28;45291;-65
2022/08/25 08:21:28;;;;;;;;;11.25;10.50;;;;;25.26;43.04;100963.59;5079426;28;45677;-65
2022/08/25 08:23:55;;;;;;;;;9.00;9.00;;;;;25.32;43.78;100968.50;5079516;28;45472;-66
2022/08/25 08:26:22;;;;;;;;;10.50;9.25;;;;;25.30;43.48;100958.72;5078264;28;45496;-65
2022/08/25 08:28:47;;;;;;;;;10.25;10.25;;;;;25.42;43.48;100971.25;5079599;28;45565;-65
2022/08/25 08:31:14;;;;;;;;;11.25;11.00;;;;;25.49;44.14;100988.84;5066711;28;45418;-65
2022/08/25 08:33:39;;;;;;;;;17.50;14.25;;;;;25.55;43.75;101005.66;5076405;28;45555;-65
2022/08/25 08:36:09;;;;;;;;;10.50;10.50;;;;;25.56;43.02;101002.78;5072380;28;45437;-65
2022/08/25 08:38:35;;;;;;;;;13.50;12.75;;;;;25.61;43.21;100984.09;5079241;28;45395;-65
2022/08/25 08:44:30;;;;;;;;;11.25;11.00;;;;;25.77;43.32;100983.53;5078376;28;45421;-65
2022/08/25 08:47:02;;;;;;;;;12.25;11.25;;;;;25.81;42.11;100992.28;5068839;28;46254;-65
2022/08/25 08:49:39;;;;;;;;;11.50;11.50;;;;;25.84;42.87;100973.75;5076418;28;45757;-65
2022/08/25 08:52:08;;;;;;;;;11.00;9.00;;;;;25.87;42.20;100975.31;5078879;28;45331;-65
2022/08/25 08:54:37;;;;;;;;;10.25;10.00;;;;;25.91;43.59;100974.06;5078965;28;45307;-65
2022/08/25 08:57:16;;;;;;;;;10.50;10.50;;;;;26.01;42.80;100979.53;5078521;28;45438;-65
2022/08/25 08:59:53;;;;;;;;;8.25;8.25;;;;;26.00;42.73;100986.88;5078820;28;45409;-65
2022/08/25 09:02:32;;;;;;;;;13.75;11.50;;;;;26.09;41.66;100992.50;5076626;28;45327;-65
2022/08/25 09:05:02;;;;;;;;;9.25;9.25;;;;;26.14;41.79;100993.78;5078618;28;45442;-65
2022/08/25 09:07:38;;;;;;;;;13.00;10.75;;;;;26.19;41.66;100996.06;5065032;28;46457;-65
2022/08/25 09:10:04;;;;;;;;;9.25;9.25;;;;;26.20;42.97;100992.34;5068034;28;45370;-65
2022/08/25 09:12:40;;;;;;;;;10.50;10.50;;;;;26.29;42.65;100977.78;5074006;28;45313;-65
2022/08/25 09:15:15;;;;;;;;;12.50;12.50;;;;;26.36;42.63;100972.56;5074097;28;45498;-65
2022/08/25 09:18:04;;;;;;;;;11.25;10.00;;;;;26.40;42.31;100985.81;5076816;28;46196;-65
2022/08/25 09:20:57;;;;;;;;;13.00;10.50;;;;;26.47;42.80;100991.56;5078525;28;45481;-66
2022/08/25 09:23:41;;;;;;;;;11.50;11.00;;;;;26.54;42.39;100984.50;5060473;28;45379;-65
2022/08/25 09:26:42;;;;;;;;;11.00;11.00;;;;;26.59;42.06;100986.78;5078000;28;45391;-65
2022/08/25 09:29:18;;;;;;;;;10.50;10.50;;;;;26.64;42.88;100980.91;5067328;28;45691;-65
2022/08/25 09:31:47;;;;;;;;;12.75;12.00;;;;;26.68;42.74;100977.72;5065530;28;46297;-65
2022/08/25 09:34:18;;;;;;;;;13.00;12.50;;;;;26.65;42.69;100967.06;5078600;28;45417;-65
2022/08/25 09:36:47;;;;;;;;;12.50;12.50;;;;;26.77;43.23;100985.03;5077564;28;45461;-65
2022/08/25 09:39:13;;;;;;;;;12.00;12.00;;;;;26.83;42.91;100982.72;5076182;28;45521;-66
2022/08/25 09:41:41;;;;;;;;;14.75;13.00;;;;;26.88;43.52;100988.59;5077679;28;45415;-65
2022/08/25 09:44:17;;;;;;;;;14.25;14.25;;;;;26.95;43.72;100995.22;5078702;28;45736;-65
2022/08/25 09:47:02;;;;;;;;;14.75;13.00;;;;;26.96;42.89;100992.34;5065900;28;45537;-66
2022/08/25 09:49:34;;;;;;;;;13.00;12.50;;;;;27.02;43.15;100992.75;5078008;28;46247;-66
2022/08/25 09:52:32;;;;;;;;;17.25;14.00;;;;;27.06;43.77;100999.63;5074708;28;45471;-66
2022/08/25 09:55:26;;;;;;;;;12.00;11.75;;;;;27.12;43.28;100996.28;5068178;28;45391;-66
2022/08/25 09:57:56;;;;;;;;;13.00;12.25;;;;;27.13;42.80;100995.25;5061328;28;45590;-64
2022/08/25 10:00:21;;;;;;;;;13.50;11.00;;;;;27.17;42.15;100991.22;5079123;27;45472;-65
2022/08/25 10:03:19;;;;;;;;;13.25;12.50;;;;;27.17;42.64;100983.84;5079599;28;45572;-65
2022/08/25 10:06:10;;;;;;;;;15.00;14.25;;;;;27.24;41.52;100983.25;5077517;28;45348;-65
2022/08/25 10:08:35;;;;;;;;;13.00;13.00;;;;;27.25;41.74;100987.69;5080446;28;45513;-65
2022/08/25 10:11:07;;;;;;;;;15.50;14.50;;;;;27.23;41.04;100979.66;5080017;28;45966;-65
2022/08/25 10:13:41;;;;;;;;;14.25;13.25;;;;;27.29;41.52;100981.81;5079402;28;45423;-65
2022/08/25 10:16:21;;;;;;;;;13.75;12.75;;;;;27.33;41.82;100968.66;5080642;28;45471;-65
2022/08/25 10:19:08;;;;;;;;;13.00;12.25;;;;;27.34;41.38;100964.91;5080832;28;45457;-65
2022/08/25 10:21:37;;;;;;;;;13.50;12.75;;;;;27.42;41.96;100975.09;5081033;28;46207;-65
2022/08/25 10:24:04;;;;;;;;;13.75;12.00;;;;;27.43;41.62;100965.84;5081364;28;45652;-65
2022/08/25 10:26:57;;;;;;;;;13.50;13.50;;;;;27.52;41.51;100975.91;5080614;28;45351;-65
2022/08/25 10:29:54;;;;;;;;;14.00;11.25;;;;;27.57;41.22;100956.25;5079057;28;45494;-65
2022/08/25 10:32:31;;;;;;;;;15.75;14.25;;;;;27.57;41.87;100951.63;5080451;28;46261;-65
2022/08/25 10:35:10;;;;;;;;;13.25;13.00;;;;;27.63;41.34;100951.00;5081244;28;45272;-65
2022/08/25 10:37:54;;;;;;;;;16.25;16.25;;;;;27.71;41.32;100939.22;5061614;28;45429;-66
2022/08/25 10:40:28;;;;;;;;;14.00;13.50;;;;;27.72;41.32;100935.50;5080259;28;45387;-65
2022/08/25 10:43:32;;;;;;;;;14.25;11.75;;;;;27.81;41.14;100937.28;5077758;27;45560;-66
2022/08/25 10:46:12;;;;;;;;;9.75;9.75;;;;;27.85;41.01;100926.84;5038627;28;45609;-65
2022/08/25 10:48:57;;;;;;;;;12.75;12.75;;;;;27.90;40.82;100927.25;5080639;28;45526;-65
2022/08/25 10:51:36;;;;;;;;;11.50;10.25;;;;;27.91;40.57;100923.47;5069291;27;46281;-65
2022/08/25 10:54:14;;;;;;;;;9.75;9.75;;;;;27.98;41.25;100930.06;5077656;27;46105;-65
2022/08/25 10:56:44;;;;;;;;;12.75;11.25;;;;;28.07;40.87;100929.13;5053141;28;46884;-65
2022/08/25 10:59:45;;;;;;;;;11.50;9.75;;;;;28.18;40.83;100933.47;5080289;28;45385;-65
2022/08/25 11:02:29;;;;;;;;;10.75;9.75;;;;;28.21;39.47;100933.16;5076575;28;45548;-65
2022/08/25 11:05:24;;;;;;;;;12.00;11.25;;;;;28.24;39.93;100921.88;5080412;28;45398;-65
2022/08/25 11:07:57;;;;;;;;;11.50;10.50;;;;;28.28;40.57;100917.81;5078596;28;45701;-65
2022/08/25 11:10:41;;;;;;;;;13.75;11.00;;;;;28.34;39.74;100927.25;5079364;28;45536;-65
2022/08/25 11:13:16;;;;;;;;;10.75;10.75;;;;;28.40;39.41;100926.63;5076744;28;45549;-65
2022/08/25 11:15:50;;;;;;;;;11.50;11.25;;;;;28.43;39.41;100928.16;5079838;28;45636;-66
2022/08/25 11:18:15;;;;;;;;;12.00;10.75;;;;;28.44;38.77;100932.66;5079929;28;45588;-65
2022/08/25 11:21:02;;;;;;;;;13.00;13.00;;;;;28.43;39.39;100919.94;5080098;28;45343;-65
2022/08/25 11:23:39;;;;;;;;;10.50;10.50;;;;;28.51;38.89;100922.72;5079598;28;45476;-66
2022/08/25 11:26:10;;;;;;;;;11.25;11.25;;;;;28.54;38.43;100927.91;5077352;28;46170;-66
2022/08/25 11:28:38;;;;;;;;;10.25;10.25;;;;;28.57;38.54;100935.00;5074668;28;45637;-66
2022/08/25 11:31:05;;;;;;;;;13.75;12.00;;;;;28.54;38.73;100925.16;5068788;28;45306;-66